createdAt,value
2022-08-26T00:00:58.692Z,28.60
2022-08-26T00:03:25.066Z,28.62
2022-08-26T00:05:51.425Z,28.60
2022-08-26T00:08:18.427Z,28.59
2022-08-26T00:10:44.851Z,28.59
2022-08-26T00:13:11.829Z,28.62
2022-08-26T00:15:38.991Z,28.60
2022-08-26T00:18:05.480Z,28.60
2022-08-26T00:20:48.487Z,28.60
2022-08-26T00:23:15.051Z,28.58
2022-08-26T00:25:42.713Z,28.58
2022-08-26T00:28:09.433Z,28.60
2022-08-26T00:30:37.925Z,28.59
2022-08-26T00:33:06.195Z,28.60
2022-08-26T00:35:33.801Z,28.58
2022-08-26T00:38:01.046Z,28.55
2022-08-26T00:40:33.085Z,28.55
2022-08-26T00:43:00.536Z,28.55
2022-08-26T00:45:27.277Z,28.55
2022-08-26T00:47:55.746Z,28.54
2022-08-26T00:50:24.541Z,28.53
2022-08-26T00:52:53.226Z,28.52
2022-08-26T00:55:22.204Z,28.52
2022-08-26T00:57:49.905Z,28.50
2022-08-26T01:00:22.027Z,28.50
2022-08-26T01:02:48.988Z,28.50
2022-08-26T01:05:16.516Z,28.52
2022-08-26T01:07:43.084Z,28.48
2022-08-26T01:10:11.436Z,28.49
2022-08-26T01:12:42.622Z,28.50
2022-08-26T01:15:11.416Z,28.52
2022-08-26T01:17:38.863Z,28.51
2022-08-26T01:20:13.322Z,28.50
2022-08-26T01:22:43.540Z,28.51
2022-08-26T01:25:10.473Z,28.49
2022-08-26T01:27:36.905Z,28.48
2022-08-26T01:30:04.990Z,28.49
2022-08-26T01:32:31.857Z,28.48
2022-08-26T01:34:58.538Z,28.48
2022-08-26T01:37:28.590Z,28.46
2022-08-26T01:39:56.111Z,28.45
2022-08-26T01:42:24.651Z,28.47
2022-08-26T01:44:53.643Z,28.45
2022-08-26T01:47:21.668Z,28.43
2022-08-26T01:49:50.882Z,28.42
2022-08-26T01:52:28.019Z,28.47
2022-08-26T01:54:55.619Z,28.46
2022-08-26T01:57:23.296Z,28.46
2022-08-26T01:59:50.632Z,28.48
2022-08-26T02:02:17.664Z,28.48
2022-08-26T02:04:48.725Z,28.47
2022-08-26T02:07:17.632Z,28.46
2022-08-26T02:09:46.354Z,28.44
2022-08-26T02:12:15.118Z,28.46
2022-08-26T02:14:43.952Z,28.47
2022-08-26T02:17:11.204Z,28.39
2022-08-26T02:19:40.595Z,28.39
2022-08-26T02:22:11.419Z,28.42
2022-08-26T02:24:50.166Z,28.46
2022-08-26T02:27:17.917Z,28.45
2022-08-26T02:29:47.191Z,28.45
2022-08-26T02:32:18.612Z,28.37
2022-08-26T02:34:45.713Z,28.40
2022-08-26T02:37:12.975Z,28.43
2022-08-26T02:39:40.703Z,28.41
2022-08-26T02:42:07.760Z,28.40
2022-08-26T02:44:34.143Z,28.39
2022-08-26T02:47:00.537Z,28.34
2022-08-26T02:49:27.487Z,28.37
2022-08-26T02:51:53.918Z,28.36
2022-08-26T02:54:23.504Z,28.35
2022-08-26T02:56:51.283Z,28.39
2022-08-26T02:59:18.109Z,28.40
2022-08-26T03:01:48.258Z,28.35
2022-08-26T03:04:15.192Z,28.34
2022-08-26T03:06:41.935Z,28.32
2022-08-26T03:09:08.373Z,28.32
2022-08-26T03:11:35.627Z,28.36
2022-08-26T03:14:03.804Z,28.37
2022-08-26T03:16:34.181Z,28.39
2022-08-26T03:19:02.328Z,28.38
2022-08-26T03:21:29.596Z,28.40
2022-08-26T03:23:58.622Z,28.40
2022-08-26T03:26:25.617Z,28.37
2022-08-26T03:29:10.411Z,28.34
2022-08-26T03:31:36.834Z,28.32
2022-08-26T03:34:04.137Z,28.30
2022-08-26T03:36:30.879Z,28.33
2022-08-26T03:38:58.043Z,28.34
2022-08-26T03:41:24.418Z,28.35
2022-08-26T03:43:50.994Z,28.36
2022-08-26T03:46:18.083Z,28.38
2022-08-26T03:48:44.632Z,28.38
2022-08-26T03:51:12.519Z,28.38
2022-08-26T03:53:38.876Z,28.37
2022-08-26T03:56:06.480Z,28.37
2022-08-26T03:58:33.174Z,28.34
2022-08-26T04:00:59.673Z,28.33
2022-08-26T04:03:45.434Z,28.36
2022-08-26T04:06:12.035Z,28.35
2022-08-26T04:08:38.537Z,28.35
2022-08-26T04:11:05.504Z,28.37
2022-08-26T04:13:32.330Z,28.34
2022-08-26T04:15:59.230Z,28.31
2022-08-26T04:18:31.426Z,28.35
2022-08-26T04:21:07.812Z,28.34
2022-08-26T04:23:34.887Z,28.33
2022-08-26T04:26:14.343Z,28.32
2022-08-26T04:28:40.700Z,28.34
2022-08-26T04:31:10.321Z,28.35
2022-08-26T04:33:36.770Z,28.30
2022-08-26T04:36:08.645Z,28.28
2022-08-26T04:38:35.043Z,28.26
2022-08-26T04:41:03.201Z,28.25
2022-08-26T04:43:31.968Z,28.27
2022-08-26T04:45:59.845Z,28.30
2022-08-26T04:48:27.722Z,28.33
2022-08-26T04:50:54.066Z,28.28
2022-08-26T04:53:21.180Z,28.29
2022-08-26T04:55:48.554Z,28.31
2022-08-26T04:58:16.078Z,28.30
2022-08-26T05:00:43.476Z,28.26
2022-08-26T05:03:10.327Z,28.27
2022-08-26T05:05:41.544Z,28.23
2022-08-26T05:08:08.850Z,28.25
2022-08-26T05:10:38.877Z,28.30
2022-08-26T05:13:11.066Z,28.25
2022-08-26T05:15:38.966Z,28.25
2022-08-26T05:18:06.614Z,28.25
2022-08-26T05:20:38.798Z,28.27
2022-08-26T05:23:05.511Z,28.30
2022-08-26T05:25:38.824Z,28.31
2022-08-26T05:28:06.286Z,28.30
2022-08-26T05:30:32.758Z,28.29
2022-08-26T05:33:01.791Z,28.29
2022-08-26T05:35:32.091Z,28.30
2022-08-26T05:38:00.487Z,28.31
2022-08-26T05:40:27.651Z,28.29
2022-08-26T05:42:54.618Z,28.28
2022-08-26T05:45:24.092Z,28.31
2022-08-26T05:47:51.058Z,28.29
2022-08-26T05:50:21.780Z,28.29
2022-08-26T05:52:49.444Z,28.32
2022-08-26T05:55:16.310Z,28.31
2022-08-26T05:57:45.130Z,28.31
2022-08-26T06:00:12.673Z,28.30
2022-08-26T06:02:39.961Z,28.29
2022-08-26T06:05:07.608Z,28.27
2022-08-26T06:07:52.752Z,28.27
2022-08-26T06:10:32.121Z,28.27
2022-08-26T06:13:02.233Z,28.28
2022-08-26T06:15:31.356Z,28.27
2022-08-26T06:17:57.926Z,28.28
2022-08-26T06:20:24.321Z,28.30
2022-08-26T06:23:11.210Z,28.30
2022-08-26T06:25:38.742Z,28.28
2022-08-26T06:28:05.895Z,28.28
2022-08-26T06:30:32.894Z,28.29
2022-08-26T06:32:59.376Z,28.28
2022-08-26T06:35:26.518Z,28.27
2022-08-26T06:37:52.971Z,28.28
2022-08-26T06:40:20.897Z,28.29
2022-08-26T06:42:47.259Z,28.28
2022-08-26T06:45:13.803Z,28.29
2022-08-26T06:47:40.193Z,28.30
2022-08-26T06:50:06.857Z,28.29
2022-08-26T06:52:33.229Z,28.30
2022-08-26T06:55:01.114Z,28.30
2022-08-26T06:57:28.554Z,28.29
2022-08-26T06:59:58.192Z,28.27
2022-08-26T07:02:24.576Z,28.27
2022-08-26T07:04:56.920Z,28.28
2022-08-26T07:07:23.334Z,28.30
2022-08-26T07:09:52.655Z,28.30
2022-08-26T07:12:19.142Z,28.28
2022-08-26T07:14:48.127Z,28.29
2022-08-26T07:17:14.966Z,28.29
2022-08-26T07:19:41.590Z,28.31
2022-08-26T07:22:08.573Z,28.30
2022-08-26T07:24:38.347Z,28.30
2022-08-26T07:27:06.279Z,28.30
2022-08-26T07:29:33.189Z,28.28
2022-08-26T07:31:59.831Z,28.30
2022-08-26T07:34:26.441Z,28.27
2022-08-26T07:36:53.460Z,28.26
2022-08-26T07:39:21.843Z,28.25
2022-08-26T07:41:48.226Z,28.26
2022-08-26T07:44:15.582Z,28.25
2022-08-26T07:46:44.045Z,28.23
2022-08-26T07:49:12.047Z,28.26
2022-08-26T07:51:38.542Z,28.27
2022-08-26T07:54:05.469Z,28.27
2022-08-26T07:56:31.933Z,28.24
2022-08-26T07:58:58.306Z,28.21
2022-08-26T08:01:25.832Z,28.22
2022-08-26T08:03:53.266Z,28.25
2022-08-26T08:06:20.316Z,28.23
2022-08-26T08:08:47.182Z,28.24
2022-08-26T08:11:14.084Z,28.26
2022-08-26T08:13:40.748Z,28.28
2022-08-26T08:16:08.569Z,28.29
2022-08-26T08:18:40.072Z,28.26
2022-08-26T08:21:23.905Z,28.29
2022-08-26T08:23:51.784Z,28.28
2022-08-26T08:26:18.395Z,28.24
2022-08-26T08:28:48.192Z,28.26
2022-08-26T08:31:33.023Z,28.25
2022-08-26T08:34:05.637Z,28.28
2022-08-26T08:36:35.873Z,28.29
2022-08-26T08:39:02.749Z,28.28
2022-08-26T08:41:35.290Z,28.29
2022-08-26T08:44:02.446Z,28.26
2022-08-26T08:46:30.148Z,28.29
2022-08-26T08:48:59.639Z,28.32
2022-08-26T08:51:45.679Z,28.30
2022-08-26T08:54:13.083Z,28.30
2022-08-26T08:56:42.627Z,28.28
2022-08-26T08:59:08.967Z,28.30
2022-08-26T09:01:35.477Z,28.31
2022-08-26T09:04:07.957Z,28.30
2022-08-26T09:06:35.111Z,28.29
2022-08-26T09:09:02.604Z,28.30
2022-08-26T09:11:30.454Z,28.31
2022-08-26T09:13:57.627Z,28.31
2022-08-26T09:16:36.102Z,28.31
2022-08-26T09:19:03.675Z,28.26
2022-08-26T09:21:30.166Z,28.28
2022-08-26T09:23:57.006Z,28.28
2022-08-26T09:26:29.292Z,28.27
2022-08-26T09:28:58.884Z,28.25
2022-08-26T09:31:32.720Z,28.25
2022-08-26T09:34:17.414Z,28.26
2022-08-26T09:36:44.164Z,28.27
2022-08-26T09:39:29.539Z,28.26
2022-08-26T09:42:05.166Z,28.23
2022-08-26T09:44:31.991Z,28.22
2022-08-26T09:47:01.230Z,28.23
2022-08-26T09:49:29.846Z,28.24
2022-08-26T09:52:05.456Z,28.25
2022-08-26T09:54:33.479Z,28.21
2022-08-26T09:57:18.970Z,28.19
2022-08-26T09:59:45.695Z,28.20
2022-08-26T10:02:27.107Z,28.16
2022-08-26T10:04:56.569Z,28.11
2022-08-26T10:07:39.225Z,28.14
2022-08-26T10:10:09.200Z,28.19
2022-08-26T10:12:39.231Z,28.21
2022-08-26T10:15:09.442Z,28.20
2022-08-26T10:17:41.922Z,28.18
2022-08-26T10:20:23.229Z,28.20
2022-08-26T10:23:01.366Z,28.20
2022-08-26T10:25:31.324Z,28.17
2022-08-26T10:28:04.445Z,28.20
2022-08-26T10:30:42.956Z,28.20
2022-08-26T10:33:11.338Z,28.17
2022-08-26T10:35:44.707Z,28.16
2022-08-26T10:38:14.576Z,28.14
2022-08-26T10:40:44.012Z,28.15
2022-08-26T10:43:14.250Z,28.15
2022-08-26T10:45:50.406Z,28.15
2022-08-26T10:48:19.388Z,28.16
2022-08-26T10:50:47.757Z,28.19
2022-08-26T10:53:25.388Z,28.18
2022-08-26T10:56:02.015Z,28.18
2022-08-26T10:58:39.959Z,28.20
2022-08-26T11:01:43.624Z,28.15
2022-08-26T11:04:28.947Z,28.13
2022-08-26T11:07:14.356Z,28.08
2022-08-26T11:09:45.630Z,28.11
2022-08-26T11:12:32.215Z,28.13
2022-08-26T11:15:00.522Z,28.16
2022-08-26T11:17:48.934Z,28.13
2022-08-26T11:20:34.841Z,28.13
2022-08-26T11:23:13.450Z,28.15
2022-08-26T11:25:58.949Z,28.14
2022-08-26T11:28:35.440Z,28.13
2022-08-26T11:31:03.043Z,28.11
2022-08-26T11:33:45.827Z,28.13
2022-08-26T11:36:29.189Z,28.11
2022-08-26T11:38:55.755Z,28.11
2022-08-26T11:41:24.237Z,28.14
2022-08-26T11:43:52.184Z,28.14
2022-08-26T11:46:27.258Z,28.15
2022-08-26T11:49:01.024Z,28.13
2022-08-26T11:51:27.509Z,28.12
2022-08-26T11:54:09.850Z,28.14
2022-08-26T11:56:40.384Z,28.17
2022-08-26T11:59:09.577Z,28.18
2022-08-26T12:01:37.927Z,28.17
2022-08-26T12:04:05.931Z,28.17
2022-08-26T12:06:37.459Z,28.18
2022-08-26T12:09:11.851Z,28.16
2022-08-26T12:11:40.175Z,28.17
2022-08-26T12:14:08.719Z,28.17
2022-08-26T12:16:38.688Z,28.17
2022-08-26T12:19:26.315Z,28.17
2022-08-26T12:21:57.807Z,28.15
2022-08-26T12:24:25.288Z,28.13
2022-08-26T12:27:05.962Z,28.15
2022-08-26T12:29:32.413Z,28.14
2022-08-26T12:32:09.831Z,28.10
2022-08-26T12:34:36.558Z,28.09
2022-08-26T12:37:03.196Z,28.13
2022-08-26T12:39:29.615Z,28.12
2022-08-26T12:42:00.169Z,28.11
2022-08-26T12:44:36.151Z,28.09
2022-08-26T12:47:10.275Z,28.08
2022-08-26T12:49:37.818Z,28.10
2022-08-26T12:52:05.318Z,28.11
2022-08-26T12:54:54.739Z,28.08
2022-08-26T12:57:26.471Z,28.06
2022-08-26T12:59:52.907Z,28.08
2022-08-26T13:02:38.603Z,28.12
2022-08-26T13:05:05.453Z,28.14
2022-08-26T13:07:31.818Z,28.14
2022-08-26T13:09:58.844Z,28.09
2022-08-26T13:12:27.217Z,28.07
2022-08-26T13:14:54.017Z,28.08
2022-08-26T13:17:21.044Z,28.08
2022-08-26T13:19:47.444Z,28.06
2022-08-26T13:22:13.877Z,28.06
2022-08-26T13:24:42.061Z,28.08
2022-08-26T13:27:09.905Z,28.06
2022-08-26T13:29:36.324Z,28.08
2022-08-26T13:32:03.951Z,28.07
2022-08-26T13:34:30.421Z,28.06
2022-08-26T13:36:57.818Z,28.06
2022-08-26T13:39:24.608Z,28.08
2022-08-26T13:41:51.413Z,28.09
2022-08-26T13:44:17.802Z,28.08
2022-08-26T13:49:15.513Z,28.09
2022-08-26T13:51:42.007Z,28.09
2022-08-26T13:54:08.466Z,28.09
2022-08-26T13:56:35.451Z,28.10
2022-08-26T13:59:01.817Z,28.03
2022-08-26T14:01:29.479Z,28.04
2022-08-26T14:03:56.298Z,28.06
2022-08-26T14:06:22.828Z,28.06
2022-08-26T14:08:49.417Z,28.07
2022-08-26T14:11:15.794Z,28.09
2022-08-26T14:13:42.158Z,28.09
2022-08-26T14:16:10.637Z,28.10
2022-08-26T14:18:42.963Z,28.13
2022-08-26T14:21:12.557Z,28.15
2022-08-26T14:23:38.994Z,28.14
2022-08-26T14:26:08.225Z,28.11
2022-08-26T14:28:35.047Z,28.10
2022-08-26T14:31:02.295Z,28.13
2022-08-26T14:33:32.211Z,28.15
2022-08-26T14:36:19.325Z,28.13
2022-08-26T14:38:46.068Z,28.17
2022-08-26T14:41:13.874Z,28.16
2022-08-26T14:43:43.424Z,28.18
2022-08-26T14:46:09.911Z,28.15
2022-08-26T14:48:36.307Z,28.16
2022-08-26T14:51:02.687Z,28.12
2022-08-26T14:53:47.838Z,28.12
2022-08-26T14:56:16.697Z,28.13
2022-08-26T14:58:44.031Z,28.14
2022-08-26T15:01:12.878Z,28.18
2022-08-26T15:03:39.373Z,28.16
2022-08-26T15:06:06.271Z,28.16
2022-08-26T15:08:36.442Z,28.18
2022-08-26T15:11:03.959Z,28.19
2022-08-26T15:13:30.607Z,28.17
2022-08-26T15:15:57.009Z,28.18
2022-08-26T15:18:23.483Z,28.16
2022-08-26T15:20:50.304Z,28.17
2022-08-26T15:23:16.705Z,28.15
2022-08-26T15:25:48.999Z,28.17
2022-08-26T15:28:17.796Z,28.15
2022-08-26T15:30:44.203Z,28.15
2022-08-26T15:33:10.667Z,28.16
2022-08-26T15:35:51.244Z,28.13
2022-08-26T15:38:18.061Z,28.12
2022-08-26T15:40:48.776Z,28.13
2022-08-26T15:43:28.177Z,28.12
2022-08-26T15:45:55.686Z,28.12
2022-08-26T15:48:22.537Z,28.13
2022-08-26T15:50:56.295Z,28.09
2022-08-26T15:53:26.867Z,28.11
2022-08-26T15:55:54.695Z,28.14
2022-08-26T15:58:26.429Z,28.14
2022-08-26T16:00:54.102Z,28.12
2022-08-26T16:03:24.208Z,28.13
2022-08-26T16:05:53.451Z,28.16
2022-08-26T16:08:20.589Z,28.21
2022-08-26T16:10:50.680Z,28.26
2022-08-26T16:13:19.616Z,28.27
2022-08-26T16:16:44.553Z,28.27
2022-08-26T16:18:58.724Z,28.27
2022-08-26T16:21:28.558Z,28.27
2022-08-26T16:23:56.161Z,28.25
2022-08-26T16:26:25.330Z,28.23
2022-08-26T16:28:52.415Z,28.22
2022-08-26T16:31:18.812Z,28.16
2022-08-26T16:33:46.132Z,28.12
2022-08-26T16:36:13.088Z,28.10
2022-08-26T16:38:40.102Z,28.05
2022-08-26T16:41:07.290Z,28.01
2022-08-26T16:43:33.921Z,27.98
2022-08-26T16:46:00.394Z,28.00
2022-08-26T16:48:27.444Z,27.95
2022-08-26T16:50:55.337Z,27.99
2022-08-26T16:53:21.866Z,28.02
2022-08-26T16:55:48.373Z,27.98
2022-08-26T16:58:15.001Z,27.93
2022-08-26T17:00:41.509Z,27.93
2022-08-26T17:03:07.933Z,27.92
2022-08-26T17:05:34.662Z,27.90
2022-08-26T17:08:01.031Z,27.92
2022-08-26T17:10:28.891Z,27.91
2022-08-26T17:12:55.851Z,27.88
2022-08-26T17:15:23.690Z,27.86
2022-08-26T17:17:53.563Z,27.84
2022-08-26T17:20:20.888Z,27.83
2022-08-26T17:22:47.974Z,27.86
2022-08-26T17:25:20.145Z,27.89
2022-08-26T17:27:46.856Z,27.87
2022-08-26T17:30:13.468Z,27.94
2022-08-26T17:32:40.571Z,27.91
2022-08-26T17:35:07.062Z,27.92
2022-08-26T17:37:34.755Z,27.92
2022-08-26T17:40:05.584Z,27.88
2022-08-26T17:42:32.027Z,27.86
2022-08-26T17:44:58.551Z,27.84
2022-08-26T17:47:27.595Z,27.81
2022-08-26T17:49:54.015Z,27.83
2022-08-26T17:52:20.721Z,27.86
2022-08-26T17:54:47.193Z,27.85
2022-08-26T17:57:13.689Z,27.83
2022-08-26T17:59:41.255Z,27.85
2022-08-26T18:02:11.206Z,27.86
2022-08-26T18:04:37.660Z,27.84
2022-08-26T18:07:14.109Z,27.81
2022-08-26T18:09:42.880Z,27.84
2022-08-26T18:12:09.528Z,27.87
2022-08-26T18:14:36.300Z,27.87
2022-08-26T18:17:03.339Z,27.84
2022-08-26T18:19:30.091Z,27.82
2022-08-26T18:21:56.853Z,27.83
2022-08-26T18:24:23.408Z,27.82
2022-08-26T18:26:50.918Z,27.86
2022-08-26T18:29:18.643Z,27.83
2022-08-26T18:31:45.174Z,27.77
2022-08-26T18:34:16.039Z,27.74
2022-08-26T18:36:42.911Z,27.74
2022-08-26T18:39:09.927Z,27.70
2022-08-26T18:41:43.543Z,27.71
2022-08-26T18:44:13.396Z,27.68
2022-08-26T18:46:40.211Z,27.67
2022-08-26T18:49:06.657Z,27.70
2022-08-26T18:51:33.719Z,27.68
2022-08-26T18:54:01.311Z,27.66
2022-08-26T18:56:28.455Z,27.65
2022-08-26T18:58:54.891Z,27.66
2022-08-26T19:01:25.520Z,27.64
2022-08-26T19:03:54.269Z,27.62
2022-08-26T19:06:22.199Z,27.63
2022-08-26T19:08:49.987Z,27.63
2022-08-26T19:11:17.064Z,27.62
2022-08-26T19:13:57.646Z,27.61
2022-08-26T19:16:25.871Z,27.62
2022-08-26T19:18:53.443Z,27.60
2022-08-26T19:21:20.782Z,27.59
2022-08-26T19:23:47.318Z,27.59
2022-08-26T19:26:14.445Z,27.60
2022-08-26T19:28:41.314Z,27.60
2022-08-26T19:31:11.827Z,27.59
2022-08-26T19:33:39.577Z,27.62
2022-08-26T19:36:06.653Z,27.61
2022-08-26T19:41:16.830Z,27.60
2022-08-26T19:43:43.232Z,27.59
2022-08-26T19:46:18.126Z,27.57
2022-08-26T19:48:44.771Z,27.58
2022-08-26T19:51:18.981Z,27.56
2022-08-26T19:53:46.078Z,27.56
2022-08-26T19:56:12.838Z,27.55
2022-08-26T19:58:39.375Z,27.54
2022-08-26T20:01:05.850Z,27.54
2022-08-26T20:03:33.292Z,27.56
2022-08-26T20:06:00.463Z,27.55
2022-08-26T20:08:28.521Z,27.53
2022-08-26T20:10:57.777Z,27.54
2022-08-26T20:13:24.114Z,27.55
2022-08-26T20:15:50.510Z,27.55
2022-08-26T20:18:35.777Z,27.55
2022-08-26T20:21:20.634Z,27.54
2022-08-26T20:23:47.821Z,27.60
2022-08-26T20:26:14.201Z,27.59
2022-08-26T20:28:40.615Z,27.59
2022-08-26T20:31:07.015Z,27.58
2022-08-26T20:33:45.978Z,27.56
2022-08-26T20:36:12.917Z,27.57
2022-08-26T20:38:39.266Z,27.57
2022-08-26T20:41:05.853Z,27.55
2022-08-26T20:43:32.284Z,27.54
2022-08-26T20:45:58.684Z,27.55
2022-08-26T20:48:25.106Z,27.54
2022-08-26T20:50:51.987Z,27.52
2022-08-26T20:53:18.679Z,27.52
2022-08-26T20:55:46.040Z,27.50
2022-08-26T20:58:12.407Z,27.52
2022-08-26T21:00:38.885Z,27.52
2022-08-26T21:03:05.407Z,27.52
2022-08-26T21:05:31.795Z,27.49
2022-08-26T21:07:58.179Z,27.48
2022-08-26T21:10:24.576Z,27.48
2022-08-26T21:12:51.271Z,27.48
2022-08-26T21:15:17.694Z,27.48
2022-08-26T21:17:44.060Z,27.46
2022-08-26T21:20:10.484Z,27.49
2022-08-26T21:22:37.013Z,27.47
2022-08-26T21:25:03.574Z,27.46
2022-08-26T21:27:30.126Z,27.45
2022-08-26T21:29:56.610Z,27.44
2022-08-26T21:32:22.996Z,27.44
2022-08-26T21:34:49.338Z,27.44
2022-08-26T21:37:16.674Z,27.44
2022-08-26T21:39:43.439Z,27.43
2022-08-26T21:42:09.805Z,27.44
2022-08-26T21:44:36.170Z,27.43
2022-08-26T21:47:04.758Z,27.45
2022-08-26T21:49:31.135Z,27.42
2022-08-26T21:51:57.562Z,27.47
2022-08-26T21:54:23.975Z,27.47
2022-08-26T21:56:50.927Z,27.46
2022-08-26T21:59:17.945Z,27.44
2022-08-26T22:01:44.397Z,27.43
2022-08-26T22:04:13.094Z,27.47
2022-08-26T22:06:42.024Z,27.45
2022-08-26T22:09:08.531Z,27.43
2022-08-26T22:11:34.898Z,27.42
2022-08-26T22:14:01.403Z,27.41
2022-08-26T22:16:28.642Z,27.41
2022-08-26T22:18:55.421Z,27.42
2022-08-26T22:21:24.142Z,27.39
2022-08-26T22:23:51.091Z,27.36
2022-08-26T22:26:25.787Z,27.37
2022-08-26T22:28:57.477Z,27.36
2022-08-26T22:31:28.153Z,27.38
2022-08-26T22:34:06.454Z,27.36
2022-08-26T22:36:32.942Z,27.33
2022-08-26T22:38:59.275Z,27.32
2022-08-26T22:41:26.678Z,27.33
2022-08-26T22:43:53.591Z,27.31
2022-08-26T22:46:21.400Z,27.32
2022-08-26T22:48:53.711Z,27.32
2022-08-26T22:51:21.165Z,27.30
2022-08-26T22:53:47.616Z,27.30
2022-08-26T22:56:14.646Z,27.29
2022-08-26T22:58:41.970Z,27.30
2022-08-26T23:01:08.422Z,27.29
2022-08-26T23:03:34.897Z,27.29
2022-08-26T23:06:04.260Z,27.28
2022-08-26T23:08:30.831Z,27.27
2022-08-26T23:10:57.199Z,27.27
2022-08-26T23:13:23.572Z,27.29
2022-08-26T23:15:58.985Z,27.27
2022-08-26T23:18:25.348Z,27.28
2022-08-26T23:20:51.731Z,27.26
2022-08-26T23:23:18.553Z,27.28
2022-08-26T23:25:44.965Z,27.28
2022-08-26T23:28:12.712Z,27.28
2022-08-26T23:30:39.212Z,27.26
2022-08-26T23:33:05.585Z,27.26
2022-08-26T23:35:31.950Z,27.26
2022-08-26T23:37:59.814Z,27.25
2022-08-26T23:40:28.625Z,27.23
2022-08-26T23:42:56.652Z,27.26
2022-08-26T23:45:24.701Z,27.26
2022-08-26T23:47:51.079Z,27.26
2022-08-26T23:50:18.477Z,27.27
2022-08-26T23:53:04.115Z,27.26
2022-08-26T23:55:33.258Z,27.26
2022-08-26T23:57:59.719Z,27.27
